Nashville, TN (37227)

5:04 PM CST on February 27, 2017 (GMT -0600)
Highland Heights | | Change Station

Elev 0 ft 36.20 °N, 86.76 °W | Updated 6 seconds ago

Partly Cloudy
Partly Cloudy
63.0 °F
Feels Like 63.0 °F
N
2.7
Wind Variable Wind from NE
Gusts 4.9 mph

Today
High -- | Low -- °F
--% Chance of Precip.
Yesterday
High -- | Low -- °F
Precip. -- in
Pressure 30.16 in
Visibility 10.0 miles
Clouds Mostly Cloudy 25000 ft
Dew Point 44 °F
Humidity 49%
Rainfall 0.07 in
Snow Depth Not available.
6:19 AM 5:40 PM
New Moon, 2% visible
METAR KBNA 272253Z 15010KT 10SM BKN250 16/06 A3016 RMK AO2 SLP212 T01610056
Pressure 30.16 in
Visibility 10.0 miles
Clouds Mostly Cloudy 25000 ft
Dew Point 44 °F
Humidity 49%
Rainfall 0.07 in
Snow Depth Not available.
6:19 AM 5:40 PM
New Moon, 2% visible
METAR KBNA 272253Z 15010KT 10SM BKN250 16/06 A3016 RMK AO2 SLP212 T01610056

Get Your Daily Forecast Email!

Thanks for signing up!

Be on the lookout for a verification email in your inbox.

You'll start receiving the daily forecast at 8 AM.

×

10-Day Weather Forecast

Almanac

Astronomy

Feb. 27, 2017 Rise Set
Actual Time
Civil Twilight
Nautical Twilight
Astronomical Twilight
Moon
Length of Visible Light
Length of Day
Tomorrow will be .
, % of the Moon is Illuminated

Today's Extremes

State Highs State Lows

Community

WunderPhotos

Upload Photos

1,962,540 photos uploaded!

WunderBlog® & News

Nearby

Air Quality

  Air Quality AQ Index Pollutant
Not available.

Snow Depth

Station Depth Elevation

Earthquake Activity

City Distance Mag. Time & Date
Minimum magnitude displayed is 2.5.

Coastal Water Temperatures

Place Temperature

Stations

Nearby Weather Stations

Station Location Temp. Windchill Dew Point Humidity Wind Precip. Elev Updated Type
                   

Watches & Warnings

There are currently no watches in effect.